createdAt,value
2023-02-19T00:00:57.721Z,973.7100
2023-02-19T00:01:59.962Z,973.6900
2023-02-19T00:03:02.269Z,973.6900
2023-02-19T00:04:04.504Z,973.6900
2023-02-19T00:05:06.789Z,973.6900
2023-02-19T00:06:08.971Z,973.6900
2023-02-19T00:07:11.178Z,973.6700
2023-02-19T00:08:13.456Z,973.6700
2023-02-19T00:09:13.619Z,973.6400
2023-02-19T00:10:15.870Z,973.6200
2023-02-19T00:11:18.208Z,973.5800
2023-02-19T00:12:20.528Z,973.6000
2023-02-19T00:13:22.702Z,973.6000
2023-02-19T00:14:24.981Z,973.6200
2023-02-19T00:15:25.100Z,973.6000
2023-02-19T00:16:27.383Z,973.6000
2023-02-19T00:17:29.627Z,973.6200
2023-02-19T00:18:31.901Z,973.5800
2023-02-19T00:19:34.168Z,973.5600
2023-02-19T00:20:36.439Z,973.5600
2023-02-19T00:21:38.735Z,973.6200
2023-02-19T00:22:40.971Z,973.5600
2023-02-19T00:23:41.101Z,973.5600
2023-02-19T00:24:43.376Z,973.6200
2023-02-19T00:25:45.663Z,973.6000
2023-02-19T00:26:48.004Z,973.5600
2023-02-19T00:27:50.297Z,973.5800
2023-02-19T00:28:52.522Z,973.5800
2023-02-19T00:29:54.807Z,973.5800
2023-02-19T00:30:57.099Z,973.5400
2023-02-19T00:31:57.343Z,973.5600
2023-02-19T00:32:59.451Z,973.5600
2023-02-19T00:34:01.744Z,973.5400
2023-02-19T00:35:03.965Z,973.5400
2023-02-19T00:36:06.214Z,973.5000
2023-02-19T00:37:08.545Z,973.5600
2023-02-19T00:38:10.792Z,973.5000
2023-02-19T00:39:13.080Z,973.5000
2023-02-19T00:40:13.210Z,973.5200
2023-02-19T00:41:15.474Z,973.4800
2023-02-19T00:42:17.792Z,973.4800
2023-02-19T00:43:19.976Z,973.4800
2023-02-19T00:44:22.225Z,973.4400
2023-02-19T00:45:24.502Z,973.4400
2023-02-19T00:46:26.934Z,973.4400
2023-02-19T00:47:29.071Z,973.4200
2023-02-19T00:48:29.187Z,973.4200
2023-02-19T00:49:31.465Z,973.4000
2023-02-19T00:50:33.772Z,973.4200
2023-02-19T00:51:36.072Z,973.4000
2023-02-19T00:52:38.403Z,973.4200
2023-02-19T00:53:40.665Z,973.4200
2023-02-19T00:54:40.821Z,973.4200
2023-02-19T00:55:42.006Z,973.4400
2023-02-19T00:56:42.164Z,973.4200
2023-02-19T00:57:44.469Z,973.4200
2023-02-19T00:58:46.752Z,973.4000
2023-02-19T00:59:49.013Z,973.3800
2023-02-19T01:00:51.314Z,973.4000
2023-02-19T01:01:53.750Z,973.4000
2023-02-19T01:02:55.943Z,973.4200
2023-02-19T01:03:56.066Z,973.4200
2023-02-19T01:04:58.370Z,973.4200
2023-02-19T01:06:00.644Z,973.3800
2023-02-19T01:07:02.949Z,973.4000
2023-02-19T01:08:05.262Z,973.4000
2023-02-19T01:09:07.543Z,973.3600
2023-02-19T01:10:09.820Z,973.3800
2023-02-19T01:11:10.506Z,973.3800
2023-02-19T01:12:12.328Z,973.3800
2023-02-19T01:13:14.715Z,973.3800
2023-02-19T01:14:14.921Z,973.4000
2023-02-19T01:15:17.189Z,973.3400
2023-02-19T01:16:19.622Z,973.3800
2023-02-19T01:17:21.860Z,973.3400
2023-02-19T01:18:24.240Z,973.3400
2023-02-19T01:19:26.502Z,973.3400
2023-02-19T01:20:28.841Z,973.3400
2023-02-19T01:21:31.195Z,973.3600
2023-02-19T01:22:33.514Z,973.3000
2023-02-19T01:23:33.751Z,973.3400
2023-02-19T01:24:35.988Z,973.3000
2023-02-19T01:25:38.303Z,973.3600
2023-02-19T01:26:40.639Z,973.3600
2023-02-19T01:27:40.764Z,973.3600
2023-02-19T01:28:43.052Z,973.3800
2023-02-19T01:29:45.346Z,973.4200
2023-02-19T01:30:47.576Z,973.4000
2023-02-19T01:31:47.746Z,973.4000
2023-02-19T01:32:49.816Z,973.4200
2023-02-19T01:33:52.165Z,973.4000
2023-02-19T01:34:54.259Z,973.3600
2023-02-19T01:35:56.519Z,973.4000
2023-02-19T01:36:56.570Z,973.4000
2023-02-19T01:37:58.803Z,973.4000
2023-02-19T01:39:01.129Z,973.4000
2023-02-19T01:40:03.434Z,973.4200
2023-02-19T01:41:03.587Z,973.4400
2023-02-19T01:42:05.826Z,973.4200
2023-02-19T01:43:08.129Z,973.4200
2023-02-19T01:44:10.456Z,973.4600
2023-02-19T01:45:12.757Z,973.4200
2023-02-19T01:46:15.048Z,973.4600
2023-02-19T01:47:17.344Z,973.4400
2023-02-19T01:48:17.507Z,973.4400
2023-02-19T01:49:19.859Z,973.4600
2023-02-19T01:50:22.132Z,973.4200
2023-02-19T01:51:24.397Z,973.4000
2023-02-19T01:52:26.683Z,973.3400
2023-02-19T01:53:28.977Z,973.3200
2023-02-19T01:54:31.314Z,973.3200
2023-02-19T01:55:31.434Z,973.3000
2023-02-19T01:56:33.732Z,973.3000
2023-02-19T01:57:36.005Z,973.2800
2023-02-19T01:58:38.339Z,973.2200
2023-02-19T01:59:40.691Z,973.2000
2023-02-19T02:00:43.036Z,973.1900
2023-02-19T02:01:45.373Z,973.1500
2023-02-19T02:02:47.690Z,973.1100
2023-02-19T02:03:50.034Z,973.0700
2023-02-19T02:04:50.255Z,973.0500
2023-02-19T02:05:52.542Z,973.0300
2023-02-19T02:06:54.818Z,972.9900
2023-02-19T02:07:57.096Z,972.9300
2023-02-19T02:08:57.313Z,972.9100
2023-02-19T02:09:59.690Z,972.8900
2023-02-19T02:11:02.021Z,972.8500
2023-02-19T02:12:02.217Z,972.8500
2023-02-19T02:13:04.566Z,972.8300
2023-02-19T02:14:06.894Z,972.8100
2023-02-19T02:15:07.110Z,972.8500
2023-02-19T02:16:09.490Z,972.8500
2023-02-19T02:17:11.738Z,972.8300
2023-02-19T02:18:14.028Z,972.8100
2023-02-19T02:19:16.313Z,972.8100
2023-02-19T02:20:18.629Z,972.8300
2023-02-19T02:21:20.919Z,972.8100
2023-02-19T02:22:21.052Z,972.8300
2023-02-19T02:24:10.713Z,972.7900
2023-02-19T02:25:12.931Z,972.8100
2023-02-19T02:26:15.320Z,972.7900
2023-02-19T02:27:17.486Z,972.8100
2023-02-19T02:28:17.606Z,972.7900
2023-02-19T02:29:19.891Z,972.7500
2023-02-19T02:30:22.236Z,972.7300
2023-02-19T02:31:24.795Z,972.7000
2023-02-19T02:32:26.833Z,972.7000
2023-02-19T02:33:29.139Z,972.6800
2023-02-19T02:34:29.271Z,972.6800
2023-02-19T02:35:31.567Z,972.6800
2023-02-19T02:36:33.878Z,972.6800
2023-02-19T02:37:36.117Z,972.7000
2023-02-19T02:38:38.340Z,972.6800
2023-02-19T02:39:40.665Z,972.7200
2023-02-19T02:42:00.472Z,972.6800
2023-02-19T02:43:02.664Z,972.7200
2023-02-19T02:44:04.887Z,972.7200
2023-02-19T02:45:07.139Z,972.7200
2023-02-19T02:46:09.441Z,972.7300
2023-02-19T02:47:09.632Z,972.7300
2023-02-19T02:48:11.893Z,972.7500
2023-02-19T02:49:14.187Z,972.7900
2023-02-19T02:50:16.515Z,972.7900
2023-02-19T02:51:18.804Z,972.8100
2023-02-19T02:52:21.143Z,972.8100
2023-02-19T02:53:21.273Z,972.7900
2023-02-19T02:54:23.591Z,972.8100
2023-02-19T02:55:25.875Z,972.7900
2023-02-19T02:56:30.330Z,972.7900
2023-02-19T02:57:09.029Z,972.7500
2023-02-19T02:58:11.369Z,972.7300
2023-02-19T02:59:11.540Z,972.7200
2023-02-19T03:00:13.881Z,972.7000
2023-02-19T03:01:16.222Z,972.7200
2023-02-19T03:02:18.571Z,972.7200
2023-02-19T03:03:20.872Z,972.7000
2023-02-19T03:05:21.239Z,972.7200
2023-02-19T03:06:23.442Z,972.7900
2023-02-19T03:07:25.667Z,972.8300
2023-02-19T03:08:27.972Z,972.8500
2023-02-19T03:09:30.291Z,972.8300
2023-02-19T03:10:32.523Z,972.8100
2023-02-19T03:11:34.838Z,972.7700
2023-02-19T03:12:35.016Z,972.7000
2023-02-19T03:13:37.432Z,972.6400
2023-02-19T03:14:39.646Z,972.6800
2023-02-19T03:15:41.969Z,972.6800
2023-02-19T03:16:44.276Z,972.6600
2023-02-19T03:17:46.494Z,972.6400
2023-02-19T03:18:46.675Z,972.6000
2023-02-19T03:19:48.945Z,972.6000
2023-02-19T03:20:51.246Z,972.6200
2023-02-19T03:21:53.569Z,972.6600
2023-02-19T03:22:55.924Z,972.7000
2023-02-19T03:23:58.278Z,972.7300
2023-02-19T03:24:58.449Z,972.7700
2023-02-19T03:26:00.799Z,972.8100
2023-02-19T03:27:03.122Z,972.8100
2023-02-19T03:28:05.460Z,972.7900
2023-02-19T03:29:07.829Z,972.7900
2023-02-19T03:30:08.043Z,972.8100
2023-02-19T03:31:10.608Z,972.8100
2023-02-19T03:32:12.664Z,972.8100
2023-02-19T03:33:14.843Z,972.7900
2023-02-19T03:34:17.281Z,972.7700
2023-02-19T03:35:19.518Z,972.7700
2023-02-19T03:36:19.710Z,972.6600
2023-02-19T03:37:22.078Z,972.6600
2023-02-19T03:38:24.328Z,972.6600
2023-02-19T03:39:26.615Z,972.6400
2023-02-19T03:40:28.816Z,972.6400
2023-02-19T03:41:31.091Z,972.6400
2023-02-19T03:42:31.214Z,972.6400
2023-02-19T03:43:34.676Z,972.7000
2023-02-19T03:44:35.726Z,972.7500
2023-02-19T03:45:37.938Z,972.8100
2023-02-19T03:46:40.158Z,972.9300
2023-02-19T03:47:42.373Z,972.9700
2023-02-19T03:48:44.583Z,972.9900
2023-02-19T03:49:49.021Z,973.0900
2023-02-19T03:50:49.081Z,973.1700
2023-02-19T03:51:51.283Z,973.1900
2023-02-19T03:52:53.511Z,973.2200
2023-02-19T03:53:53.583Z,973.2200
2023-02-19T03:54:55.884Z,973.2400
2023-02-19T03:55:58.058Z,973.2400
2023-02-19T03:57:00.300Z,973.1900
2023-02-19T03:58:02.522Z,973.1500
2023-02-19T03:59:04.768Z,973.1100
2023-02-19T04:00:07.121Z,973.1100
2023-02-19T04:01:09.842Z,973.0700
2023-02-19T04:02:11.744Z,973.0300
2023-02-19T04:03:11.871Z,972.9900
2023-02-19T04:04:14.209Z,973.0100
2023-02-19T04:05:16.561Z,972.9700
2023-02-19T04:06:18.878Z,972.9500
2023-02-19T04:07:21.224Z,972.9700
2023-02-19T04:08:21.433Z,972.8900
2023-02-19T04:09:23.770Z,972.8500
2023-02-19T04:10:26.150Z,972.7500
2023-02-19T04:11:28.451Z,972.7200
2023-02-19T04:12:30.805Z,972.6000
2023-02-19T04:13:30.976Z,972.5400
2023-02-19T04:14:33.309Z,972.5400
2023-02-19T04:15:35.669Z,972.5600
2023-02-19T04:16:37.981Z,972.5800
2023-02-19T04:17:40.211Z,972.5600
2023-02-19T04:18:40.345Z,972.5400
2023-02-19T04:19:42.642Z,972.5000
2023-02-19T04:20:45.079Z,972.5200
2023-02-19T04:21:47.237Z,972.5000
2023-02-19T04:22:49.536Z,972.4800
2023-02-19T04:23:51.793Z,972.4400
2023-02-19T04:24:54.067Z,972.4800
2023-02-19T04:25:56.470Z,972.4800
2023-02-19T04:26:56.470Z,972.5400
2023-02-19T04:27:58.737Z,972.5400
2023-02-19T04:29:01.015Z,972.5400
2023-02-19T04:30:03.334Z,972.5800
2023-02-19T04:31:05.609Z,972.5800
2023-02-19T04:32:07.834Z,972.6400
2023-02-19T04:33:10.078Z,972.5200
2023-02-19T04:34:12.317Z,972.4800
2023-02-19T04:35:12.421Z,972.4800
2023-02-19T04:36:14.812Z,972.4600
2023-02-19T04:37:16.953Z,972.4800
2023-02-19T04:38:19.244Z,972.4800
2023-02-19T04:39:21.496Z,972.4800
2023-02-19T04:40:23.753Z,972.4000
2023-02-19T04:41:26.042Z,972.3100
2023-02-19T04:42:28.302Z,972.2700
2023-02-19T04:43:28.450Z,972.2900
2023-02-19T04:44:30.724Z,972.3400
2023-02-19T04:45:33.017Z,972.4200
2023-02-19T04:46:35.364Z,972.5800
2023-02-19T04:47:37.667Z,972.6200
2023-02-19T04:48:40.011Z,972.6400
2023-02-19T04:49:40.119Z,972.6200
2023-02-19T04:50:42.426Z,972.5800
2023-02-19T04:51:44.819Z,972.5800
2023-02-19T04:52:47.084Z,972.5600
2023-02-19T04:53:49.347Z,972.6000
2023-02-19T04:54:51.705Z,972.6400
2023-02-19T04:55:51.806Z,972.7000
2023-02-19T04:56:54.166Z,972.6800
2023-02-19T04:57:56.413Z,972.7200
2023-02-19T04:58:58.710Z,972.7700
2023-02-19T05:00:01.014Z,972.8500
2023-02-19T05:01:03.308Z,972.9300
2023-02-19T05:02:05.624Z,972.9900
2023-02-19T05:03:05.801Z,972.9900
2023-02-19T05:04:08.161Z,973.0100
2023-02-19T05:05:10.464Z,972.9900
2023-02-19T05:06:12.794Z,972.9300
2023-02-19T05:07:15.267Z,972.9300
2023-02-19T05:08:15.319Z,972.9500
2023-02-19T05:09:17.657Z,972.9100
2023-02-19T05:10:20.002Z,972.8900
2023-02-19T05:11:22.340Z,972.8900
2023-02-19T05:12:24.660Z,972.8700
2023-02-19T05:13:26.996Z,972.8500
2023-02-19T05:14:27.169Z,972.8700
2023-02-19T05:15:29.511Z,972.8900
2023-02-19T05:16:31.841Z,972.9500
2023-02-19T05:17:34.215Z,972.9500
2023-02-19T05:18:36.533Z,972.9500
2023-02-19T05:19:36.713Z,972.9900
2023-02-19T05:20:39.041Z,973.0100
2023-02-19T05:21:41.326Z,973.0100
2023-02-19T05:22:43.592Z,973.0500
2023-02-19T05:23:45.866Z,973.0300
2023-02-19T05:24:48.081Z,972.9900
2023-02-19T05:25:50.342Z,972.9700
2023-02-19T05:26:50.444Z,972.9300
2023-02-19T05:27:52.741Z,972.9300
2023-02-19T05:28:54.953Z,972.9100
2023-02-19T05:29:57.209Z,972.8900
2023-02-19T05:30:59.474Z,972.9300
2023-02-19T05:32:01.665Z,972.9900
2023-02-19T05:34:23.465Z,972.9900
2023-02-19T05:35:24.528Z,972.9900
2023-02-19T05:36:25.772Z,972.9700
2023-02-19T05:37:27.972Z,972.9900
2023-02-19T05:38:30.212Z,972.9700
2023-02-19T05:39:32.499Z,972.9900
2023-02-19T05:40:32.575Z,972.9500
2023-02-19T05:41:34.841Z,972.9500
2023-02-19T05:42:37.113Z,972.9100
2023-02-19T05:43:39.372Z,972.9100
2023-02-19T05:44:41.674Z,972.8900
2023-02-19T05:45:43.903Z,972.9100
2023-02-19T05:46:46.227Z,972.9500
2023-02-19T05:47:48.476Z,972.9900
2023-02-19T05:48:48.569Z,972.9900
2023-02-19T05:49:50.998Z,973.0300
2023-02-19T05:50:53.143Z,973.0100
2023-02-19T05:51:55.440Z,973.0900
2023-02-19T05:52:57.723Z,973.1300
2023-02-19T05:54:00.029Z,973.1500
2023-02-19T05:55:02.356Z,973.1500
2023-02-19T05:56:02.436Z,973.1700
2023-02-19T05:57:04.715Z,973.1700
2023-02-19T05:58:07.020Z,973.1500
2023-02-19T05:59:09.276Z,973.1300
2023-02-19T06:00:11.634Z,973.1700
2023-02-19T06:01:13.717Z,973.2000
2023-02-19T06:02:15.979Z,973.2200
2023-02-19T06:03:18.249Z,973.2000
2023-02-19T06:04:18.373Z,973.2800
2023-02-19T06:05:20.660Z,973.3000
2023-02-19T06:06:22.867Z,973.3400
2023-02-19T06:07:25.134Z,973.3400
2023-02-19T06:08:27.434Z,973.3200
2023-02-19T06:09:29.731Z,973.3800
2023-02-19T06:10:32.105Z,973.4200
2023-02-19T06:11:32.197Z,973.4800
2023-02-19T06:12:34.426Z,973.5000
2023-02-19T06:13:36.719Z,973.5600
2023-02-19T06:14:38.989Z,973.5600
2023-02-19T06:15:41.249Z,973.5800
2023-02-19T06:16:43.520Z,973.6200
2023-02-19T06:17:45.766Z,973.6200
2023-02-19T06:18:48.009Z,973.5800
2023-02-19T06:19:48.139Z,973.5000
2023-02-19T06:20:50.470Z,973.5200
2023-02-19T06:21:52.711Z,973.5400
2023-02-19T06:22:55.013Z,973.5200
2023-02-19T06:23:57.316Z,973.5000
2023-02-19T06:24:59.618Z,973.5600
2023-02-19T06:26:01.935Z,973.5200
2023-02-19T06:27:02.017Z,973.5400
2023-02-19T06:28:04.224Z,973.5000
2023-02-19T06:29:06.498Z,973.5600
2023-02-19T06:30:08.810Z,973.5400
2023-02-19T06:31:11.555Z,973.5600
2023-02-19T06:32:13.449Z,973.5800
2023-02-19T06:33:15.697Z,973.6000
2023-02-19T06:34:18.014Z,973.6200
2023-02-19T06:35:18.208Z,973.6700
2023-02-19T06:36:20.564Z,973.7100
2023-02-19T06:37:22.876Z,973.7300
2023-02-19T06:38:25.210Z,973.7700
2023-02-19T06:39:27.552Z,973.7900
2023-02-19T06:40:27.723Z,973.7700
2023-02-19T06:41:30.016Z,973.7700
2023-02-19T06:42:32.260Z,973.7500
2023-02-19T06:43:34.568Z,973.7700
2023-02-19T06:44:36.861Z,973.7100
2023-02-19T06:45:39.148Z,973.7500
2023-02-19T06:46:39.427Z,973.7700
2023-02-19T06:47:41.681Z,973.7700
2023-02-19T06:48:44.004Z,973.7900
2023-02-19T06:49:46.344Z,973.8100
2023-02-19T06:50:48.667Z,973.8300
2023-02-19T06:51:48.852Z,973.8300
2023-02-19T06:52:51.152Z,973.8500
2023-02-19T06:53:53.496Z,973.8500
2023-02-19T06:54:55.808Z,973.8900
2023-02-19T06:55:57.042Z,973.9300
2023-02-19T06:56:59.438Z,973.9700
2023-02-19T06:57:59.581Z,973.9900
2023-02-19T06:59:01.885Z,974.0300
2023-02-19T07:00:04.229Z,974.0600
2023-02-19T07:01:06.699Z,974.0800
2023-02-19T07:02:08.999Z,974.0600
2023-02-19T07:03:11.326Z,974.0500
2023-02-19T07:04:11.561Z,974.0600
2023-02-19T07:05:13.867Z,974.0800
2023-02-19T07:06:16.224Z,974.1000
2023-02-19T07:07:18.606Z,974.1400
2023-02-19T07:08:20.899Z,974.1600
2023-02-19T07:09:23.237Z,974.1400
2023-02-19T07:10:23.456Z,974.1800
2023-02-19T07:11:25.828Z,974.1800
2023-02-19T07:12:28.237Z,974.2000
2023-02-19T07:13:28.404Z,974.2000
2023-02-19T07:14:30.765Z,974.2000
2023-02-19T07:15:33.111Z,974.2000
2023-02-19T07:16:35.542Z,974.1600
2023-02-19T07:17:37.820Z,974.1800
2023-02-19T07:18:40.105Z,974.1800
2023-02-19T07:19:42.422Z,974.2200
2023-02-19T07:20:44.762Z,974.2800
2023-02-19T07:21:47.086Z,974.3000
2023-02-19T07:22:47.399Z,974.3400
2023-02-19T07:23:49.613Z,974.3800
2023-02-19T07:24:51.980Z,974.3800
2023-02-19T07:25:54.331Z,974.4200
2023-02-19T07:26:56.646Z,974.4400
2023-02-19T07:27:58.996Z,974.4400
2023-02-19T07:29:01.308Z,974.4000
2023-02-19T07:30:03.703Z,974.4200
2023-02-19T07:31:06.172Z,974.4200
2023-02-19T07:32:06.255Z,974.5000
2023-02-19T07:33:10.451Z,974.5000
2023-02-19T07:34:10.879Z,974.5200
2023-02-19T07:35:13.223Z,974.5500
2023-02-19T07:36:15.518Z,974.6100
2023-02-19T07:37:17.853Z,974.6300
2023-02-19T07:38:20.177Z,974.6700
2023-02-19T07:39:22.454Z,974.6700
2023-02-19T07:40:24.745Z,974.7700
2023-02-19T07:41:27.057Z,974.7700
2023-02-19T07:42:29.329Z,974.7700
2023-02-19T07:43:31.668Z,974.7900
2023-02-19T07:44:33.946Z,974.7700
2023-02-19T07:45:34.207Z,974.7700
2023-02-19T07:46:36.386Z,974.7900
2023-02-19T07:47:38.709Z,974.7900
2023-02-19T07:48:41.074Z,974.8100
2023-02-19T07:49:43.371Z,974.8100
2023-02-19T07:50:45.694Z,974.8300
2023-02-19T07:51:47.985Z,974.8500
2023-02-19T07:52:50.233Z,974.8700
2023-02-19T07:53:52.535Z,974.9100
2023-02-19T07:54:54.726Z,974.9100
2023-02-19T07:55:54.864Z,974.9500
2023-02-19T07:56:57.164Z,974.9700
2023-02-19T07:57:59.472Z,974.9700
2023-02-19T07:59:01.800Z,974.9700
2023-02-19T08:00:04.098Z,974.9900
2023-02-19T08:01:06.431Z,974.9700
2023-02-19T08:02:08.708Z,975.0100
2023-02-19T08:03:08.892Z,974.9900
2023-02-19T08:04:11.169Z,975.0500
2023-02-19T08:05:13.405Z,975.0700
2023-02-19T08:06:15.782Z,975.0900
2023-02-19T08:07:17.976Z,975.0900
2023-02-19T08:08:20.295Z,975.0900
2023-02-19T08:09:22.598Z,975.0700
2023-02-19T08:10:22.745Z,975.1100
2023-02-19T08:11:25.019Z,975.1300
2023-02-19T08:12:27.344Z,975.0900
2023-02-19T08:13:29.658Z,975.0900
2023-02-19T08:14:32.013Z,975.0900
2023-02-19T08:15:34.290Z,975.1100
2023-02-19T08:16:43.034Z,975.1300
2023-02-19T08:17:38.871Z,975.1300
2023-02-19T08:18:41.196Z,975.1100
2023-02-19T08:19:43.581Z,975.1600
2023-02-19T08:20:43.649Z,975.1300
2023-02-19T08:21:45.956Z,975.2000
2023-02-19T08:22:48.263Z,975.1600
2023-02-19T08:23:51.251Z,975.2000
2023-02-19T08:24:52.982Z,975.2200
2023-02-19T08:25:55.146Z,975.2400
2023-02-19T08:26:57.441Z,975.2600
2023-02-19T08:27:59.726Z,975.2600
2023-02-19T08:29:02.030Z,975.2800
2023-02-19T08:30:04.461Z,975.3000
2023-02-19T08:31:04.531Z,975.3000
2023-02-19T08:32:06.701Z,975.3200
2023-02-19T08:33:08.875Z,975.3400
2023-02-19T08:34:11.100Z,975.3800
2023-02-19T08:35:13.425Z,975.4000
2023-02-19T08:36:15.634Z,975.4000
2023-02-19T08:37:17.907Z,975.4200
2023-02-19T08:38:20.193Z,975.4400
2023-02-19T08:39:21.229Z,975.4200
2023-02-19T08:40:22.664Z,975.4400
2023-02-19T08:41:24.927Z,975.4600
2023-02-19T08:42:27.236Z,975.4400
2023-02-19T08:43:29.499Z,975.4600
2023-02-19T08:44:31.782Z,975.4600
2023-02-19T08:45:34.100Z,975.4800
2023-02-19T08:46:34.638Z,975.5000
2023-02-19T08:47:36.460Z,975.5000
2023-02-19T08:48:38.785Z,975.5000
2023-02-19T08:49:41.104Z,975.5400
2023-02-19T08:50:41.301Z,975.5400
2023-02-19T08:51:43.588Z,975.5400
2023-02-19T08:52:45.919Z,975.5600
2023-02-19T08:53:46.104Z,975.5400
2023-02-19T08:54:48.429Z,975.5200
2023-02-19T08:55:50.808Z,975.5400
2023-02-19T08:56:53.093Z,975.5200
2023-02-19T08:57:55.420Z,975.5600
2023-02-19T08:58:57.760Z,975.5400
2023-02-19T08:59:58.017Z,975.5200
2023-02-19T09:01:00.459Z,975.5000
2023-02-19T09:02:02.706Z,975.5200
2023-02-19T09:03:02.953Z,975.5400
2023-02-19T09:04:05.358Z,975.5200
2023-02-19T09:05:07.717Z,975.5400
2023-02-19T09:06:08.215Z,975.5400
2023-02-19T09:07:10.320Z,975.5400
2023-02-19T09:08:12.692Z,975.5600
2023-02-19T09:09:12.901Z,975.5600
2023-02-19T09:10:15.278Z,975.6100
2023-02-19T09:11:17.795Z,975.6000
2023-02-19T09:12:17.854Z,975.5800
2023-02-19T09:13:20.221Z,975.6000
2023-02-19T09:14:22.599Z,975.6100
2023-02-19T09:15:22.799Z,975.6100
2023-02-19T09:16:25.172Z,975.6100
2023-02-19T09:17:27.483Z,975.6100
2023-02-19T09:18:29.811Z,975.6100
2023-02-19T09:19:32.126Z,975.6000
2023-02-19T09:20:34.454Z,975.6000
2023-02-19T09:21:36.813Z,975.6000
2023-02-19T09:22:39.032Z,975.6100
2023-02-19T09:23:41.365Z,975.6300
2023-02-19T09:24:43.726Z,975.6000
2023-02-19T09:25:46.085Z,975.6100
2023-02-19T09:26:48.504Z,975.6300
2023-02-19T09:27:48.692Z,975.6500
2023-02-19T09:28:51.054Z,975.6300
2023-02-19T09:29:53.391Z,975.6000
2023-02-19T09:30:55.825Z,975.6100
2023-02-19T09:31:58.188Z,975.6300
2023-02-19T09:33:00.384Z,975.6500
2023-02-19T09:34:00.567Z,975.6900
2023-02-19T09:35:02.963Z,975.6700
2023-02-19T09:36:05.350Z,975.7100
2023-02-19T09:37:05.621Z,975.6900
2023-02-19T09:38:07.934Z,975.7100
2023-02-19T09:39:10.309Z,975.7300
2023-02-19T09:40:10.523Z,975.7300
2023-02-19T09:41:13.118Z,975.7300
2023-02-19T09:42:15.209Z,975.7300
2023-02-19T09:43:17.526Z,975.7300
2023-02-19T09:44:19.840Z,975.7100
2023-02-19T09:45:22.185Z,975.7500
2023-02-19T09:46:24.519Z,975.7300
2023-02-19T09:47:26.853Z,975.7900
2023-02-19T09:48:29.135Z,975.7900
2023-02-19T09:49:31.459Z,975.7900
2023-02-19T09:50:33.797Z,975.7900
2023-02-19T09:51:36.172Z,975.8100
2023-02-19T09:52:36.410Z,975.8100
2023-02-19T09:53:38.742Z,975.7900
2023-02-19T09:54:41.094Z,975.8500
2023-02-19T09:55:43.403Z,975.7900
2023-02-19T09:56:45.762Z,975.8700
2023-02-19T09:57:48.161Z,975.8500
2023-02-19T09:58:48.321Z,975.8500
2023-02-19T09:59:50.692Z,975.8500
2023-02-19T10:00:53.045Z,975.8500
2023-02-19T10:01:53.342Z,975.8500
2023-02-19T10:02:55.674Z,975.8700
2023-02-19T10:03:58.016Z,975.8700
2023-02-19T10:04:58.206Z,975.8300
2023-02-19T10:06:00.486Z,975.8100
2023-02-19T10:07:02.794Z,975.8300
2023-02-19T10:08:05.072Z,975.8100
2023-02-19T10:09:05.180Z,975.8300
2023-02-19T10:10:07.475Z,975.8300
2023-02-19T10:11:10.214Z,975.7700
2023-02-19T10:12:12.133Z,975.7700
2023-02-19T10:13:14.540Z,975.7700
2023-02-19T10:14:16.836Z,975.7500
2023-02-19T10:15:19.167Z,975.7100
2023-02-19T10:16:21.465Z,975.7100
2023-02-19T10:17:23.776Z,975.7100
2023-02-19T10:18:26.097Z,975.6900
2023-02-19T10:19:28.434Z,975.6900
2023-02-19T10:20:30.751Z,975.7100
2023-02-19T10:21:33.077Z,975.6500
2023-02-19T10:22:35.338Z,975.6700
2023-02-19T10:23:37.675Z,975.6500
2023-02-19T10:24:39.960Z,975.6500
2023-02-19T10:25:42.280Z,975.6500
2023-02-19T10:26:44.602Z,975.6300
2023-02-19T10:27:46.913Z,975.6300
2023-02-19T10:28:49.199Z,975.6700
2023-02-19T10:29:51.451Z,975.6500
2023-02-19T10:30:53.771Z,975.6500
2023-02-19T10:31:54.070Z,975.6500
2023-02-19T10:32:56.178Z,975.6000
2023-02-19T10:33:58.494Z,975.5800
2023-02-19T10:35:00.813Z,975.6000
2023-02-19T10:36:03.103Z,975.5400
2023-02-19T10:37:05.395Z,975.5600
2023-02-19T10:38:07.698Z,975.5800
2023-02-19T10:39:07.892Z,975.5600
2023-02-19T10:40:10.150Z,975.5600
2023-02-19T10:41:12.734Z,975.5600
2023-02-19T10:42:14.683Z,975.6000
2023-02-19T10:43:17.026Z,975.6100
2023-02-19T10:44:19.416Z,975.6000
2023-02-19T10:45:21.741Z,975.5800
2023-02-19T10:46:24.196Z,975.6700
2023-02-19T10:47:26.394Z,975.6300
2023-02-19T10:48:28.699Z,975.6500
2023-02-19T10:49:31.005Z,975.6700
2023-02-19T10:50:33.287Z,975.6900
2023-02-19T10:51:35.554Z,975.7100
2023-02-19T10:52:37.853Z,975.6500
2023-02-19T10:53:40.128Z,975.6500
2023-02-19T10:54:42.396Z,975.6900
2023-02-19T10:55:42.507Z,975.6700
2023-02-19T10:56:44.818Z,975.6300
2023-02-19T10:57:47.141Z,975.6100
2023-02-19T10:58:49.404Z,975.6500
2023-02-19T10:59:49.592Z,975.6700
2023-02-19T11:00:51.820Z,975.7100
2023-02-19T11:01:54.255Z,975.6700
2023-02-19T11:02:56.412Z,975.7100
2023-02-19T11:03:56.523Z,975.6900
2023-02-19T11:04:58.846Z,975.6900
2023-02-19T11:06:01.065Z,975.7300
2023-02-19T11:07:03.359Z,975.7500
2023-02-19T11:08:03.480Z,975.7100
2023-02-19T11:09:05.733Z,975.7500
2023-02-19T11:10:07.994Z,975.7300
2023-02-19T11:11:10.537Z,975.8100
2023-02-19T11:12:10.371Z,975.7700
2023-02-19T11:13:12.651Z,975.7900
2023-02-19T11:14:51.477Z,975.7500
2023-02-19T11:15:53.786Z,975.7900
2023-02-19T11:16:55.985Z,975.8100
2023-02-19T11:17:58.261Z,975.7700
2023-02-19T11:19:00.533Z,975.8300
2023-02-19T11:20:00.681Z,975.8300
2023-02-19T11:21:02.987Z,975.7900
2023-02-19T11:22:05.244Z,975.8100
2023-02-19T11:23:07.558Z,975.7700
2023-02-19T11:24:11.986Z,975.7500
2023-02-19T11:24:59.425Z,975.7700
2023-02-19T11:25:57.262Z,975.7500
2023-02-19T11:26:59.548Z,975.7300
2023-02-19T11:28:01.735Z,975.6900
2023-02-19T11:29:03.943Z,975.6900
2023-02-19T11:30:06.151Z,975.7100
2023-02-19T11:31:08.582Z,975.7300
2023-02-19T11:32:10.618Z,975.7500
2023-02-19T11:33:12.631Z,975.7500
2023-02-19T11:34:14.775Z,975.7300
2023-02-19T11:35:16.933Z,975.7300
2023-02-19T11:36:19.124Z,975.7500
2023-02-19T11:37:21.305Z,975.7700
2023-02-19T11:38:23.410Z,975.7500
2023-02-19T11:39:25.555Z,975.7500
2023-02-19T11:40:27.728Z,975.7900
2023-02-19T11:41:29.891Z,975.7700
2023-02-19T11:42:32.101Z,975.7700
2023-02-19T11:43:34.217Z,975.7700
2023-02-19T11:44:36.403Z,975.7300
2023-02-19T11:45:38.532Z,975.7300
2023-02-19T11:46:40.736Z,975.7100
2023-02-19T11:47:42.922Z,975.6900
2023-02-19T11:48:45.066Z,975.6700
2023-02-19T11:49:47.226Z,975.6300
2023-02-19T11:50:49.399Z,975.6700
2023-02-19T11:51:52.764Z,975.6700
2023-02-19T11:52:53.787Z,975.6100
2023-02-19T11:53:55.923Z,975.6300
2023-02-19T11:54:58.089Z,975.6500
2023-02-19T11:55:58.131Z,975.6100
2023-02-19T11:57:00.403Z,975.6000
2023-02-19T11:58:02.644Z,975.6000
2023-02-19T11:59:04.881Z,975.5600
2023-02-19T12:00:07.098Z,975.5600
2023-02-19T12:01:09.938Z,975.6100
2023-02-19T12:02:11.652Z,975.5400
2023-02-19T12:03:13.924Z,975.5600
2023-02-19T12:04:16.108Z,975.6000
2023-02-19T12:05:18.407Z,975.6000
2023-02-19T12:06:20.602Z,975.5600
2023-02-19T12:07:22.980Z,975.5600
2023-02-19T12:08:22.999Z,975.5400
2023-02-19T12:09:25.255Z,975.4800
2023-02-19T12:10:27.511Z,975.4800
2023-02-19T12:11:29.768Z,975.4800
2023-02-19T12:12:31.951Z,975.4800